sensor_id;sensor_type;location;lat;lon;timestamp;P1;durP1;ratioP1;P2;durP2;ratioP2
5549;SDS011;2798;42.716;23.256;2023-01-20T00:01:23;7.93;;;4.13;;
5549;SDS011;2798;42.716;23.256;2023-01-20T00:03:50;6.70;;;3.87;;
5549;SDS011;2798;42.716;23.256;2023-01-20T00:06:16;7.03;;;3.73;;
5549;SDS011;2798;42.716;23.256;2023-01-20T00:08:41;6.23;;;3.73;;
5549;SDS011;2798;42.716;23.256;2023-01-20T00:11:07;8.00;;;4.20;;
5549;SDS011;2798;42.716;23.256;2023-01-20T00:13:33;6.77;;;3.60;;
5549;SDS011;2798;42.716;23.256;2023-01-20T00:16:00;6.30;;;3.37;;
5549;SDS011;2798;42.716;23.256;2023-01-20T00:18:25;8.57;;;4.40;;
5549;SDS011;2798;42.716;23.256;2023-01-20T00:20:51;7.03;;;3.90;;
5549;SDS011;2798;42.716;23.256;2023-01-20T00:23:16;7.53;;;3.47;;
5549;SDS011;2798;42.716;23.256;2023-01-20T00:25:41;8.23;;;4.10;;
5549;SDS011;2798;42.716;23.256;2023-01-20T00:28:06;8.10;;;3.97;;
5549;SDS011;2798;42.716;23.256;2023-01-20T00:30:32;7.63;;;3.70;;
5549;SDS011;2798;42.716;23.256;2023-01-20T00:32:57;5.40;;;3.30;;
5549;SDS011;2798;42.716;23.256;2023-01-20T00:35:22;6.60;;;3.60;;
5549;SDS011;2798;42.716;23.256;2023-01-20T00:37:48;5.80;;;3.13;;
5549;SDS011;2798;42.716;23.256;2023-01-20T00:40:13;5.03;;;3.07;;
5549;SDS011;2798;42.716;23.256;2023-01-20T00:42:38;7.63;;;3.67;;
5549;SDS011;2798;42.716;23.256;2023-01-20T00:45:03;7.70;;;4.00;;
5549;SDS011;2798;42.716;23.256;2023-01-20T00:47:29;5.80;;;3.43;;
5549;SDS011;2798;42.716;23.256;2023-01-20T00:49:54;6.97;;;4.10;;
5549;SDS011;2798;42.716;23.256;2023-01-20T00:52:19;6.67;;;3.80;;
5549;SDS011;2798;42.716;23.256;2023-01-20T00:54:45;6.53;;;3.50;;
5549;SDS011;2798;42.716;23.256;2023-01-20T00:57:10;6.17;;;3.27;;
5549;SDS011;2798;42.716;23.256;2023-01-20T00:59:35;6.17;;;3.47;;
5549;SDS011;2798;42.716;23.256;2023-01-20T01:02:01;9.13;;;3.40;;
5549;SDS011;2798;42.716;23.256;2023-01-20T01:04:26;5.63;;;3.10;;
5549;SDS011;2798;42.716;23.256;2023-01-20T01:06:51;8.20;;;4.13;;
5549;SDS011;2798;42.716;23.256;2023-01-20T01:09:16;6.37;;;3.33;;
5549;SDS011;2798;42.716;23.256;2023-01-20T01:11:42;6.33;;;3.30;;
5549;SDS011;2798;42.716;23.256;2023-01-20T01:14:07;7.90;;;3.80;;
5549;SDS011;2798;42.716;23.256;2023-01-20T01:16:33;9.47;;;4.10;;
5549;SDS011;2798;42.716;23.256;2023-01-20T01:18:58;8.63;;;3.87;;
5549;SDS011;2798;42.716;23.256;2023-01-20T01:21:23;5.43;;;3.17;;
5549;SDS011;2798;42.716;23.256;2023-01-20T01:23:48;5.57;;;3.37;;
5549;SDS011;2798;42.716;23.256;2023-01-20T01:26:15;5.57;;;3.30;;
5549;SDS011;2798;42.716;23.256;2023-01-20T01:28:41;6.27;;;3.30;;
5549;SDS011;2798;42.716;23.256;2023-01-20T01:31:06;5.00;;;3.13;;
5549;SDS011;2798;42.716;23.256;2023-01-20T01:33:32;8.50;;;3.60;;
5549;SDS011;2798;42.716;23.256;2023-01-20T01:35:58;6.63;;;3.40;;
5549;SDS011;2798;42.716;23.256;2023-01-20T01:38:25;5.03;;;3.00;;
5549;SDS011;2798;42.716;23.256;2023-01-20T01:40:51;5.60;;;3.20;;
5549;SDS011;2798;42.716;23.256;2023-01-20T01:43:38;7.10;;;3.60;;
5549;SDS011;2798;42.716;23.256;2023-01-20T01:46:02;6.23;;;3.30;;
5549;SDS011;2798;42.716;23.256;2023-01-20T01:48:42;12.33;;;4.73;;
5549;SDS011;2798;42.716;23.256;2023-01-20T01:51:08;9.00;;;4.10;;
5549;SDS011;2798;42.716;23.256;2023-01-20T01:53:39;7.27;;;3.90;;
5549;SDS011;2798;42.716;23.256;2023-01-20T01:56:06;6.60;;;3.60;;
5549;SDS011;2798;42.716;23.256;2023-01-20T01:58:32;5.83;;;3.23;;
5549;SDS011;2798;42.716;23.256;2023-01-20T02:00:59;6.73;;;3.50;;
5549;SDS011;2798;42.716;23.256;2023-01-20T02:03:25;6.73;;;3.27;;
5549;SDS011;2798;42.716;23.256;2023-01-20T02:05:55;5.23;;;3.00;;
5549;SDS011;2798;42.716;23.256;2023-01-20T02:08:21;6.83;;;3.47;;
5549;SDS011;2798;42.716;23.256;2023-01-20T02:10:47;5.83;;;3.33;;
5549;SDS011;2798;42.716;23.256;2023-01-20T02:13:12;5.60;;;3.20;;
5549;SDS011;2798;42.716;23.256;2023-01-20T02:15:45;7.00;;;3.63;;
5549;SDS011;2798;42.716;23.256;2023-01-20T02:23:32;4.77;;;2.97;;
5549;SDS011;2798;42.716;23.256;2023-01-20T02:26:12;5.83;;;3.10;;
5549;SDS011;2798;42.716;23.256;2023-01-20T02:33:51;7.83;;;3.80;;
5549;SDS011;2798;42.716;23.256;2023-01-20T02:36:31;8.13;;;3.80;;
5549;SDS011;2798;42.716;23.256;2023-01-20T02:49:02;4.97;;;3.00;;
5549;SDS011;2798;42.716;23.256;2023-01-20T02:51:34;6.53;;;3.53;;
5549;SDS011;2798;42.716;23.256;2023-01-20T02:54:03;7.23;;;3.90;;
5549;SDS011;2798;42.716;23.256;2023-01-20T02:56:29;6.57;;;3.40;;
5549;SDS011;2798;42.716;23.256;2023-01-20T02:58:57;6.33;;;3.43;;
5549;SDS011;2798;42.716;23.256;2023-01-20T03:01:27;3.70;;;2.80;;
5549;SDS011;2798;42.716;23.256;2023-01-20T03:03:54;4.17;;;2.90;;
5549;SDS011;2798;42.716;23.256;2023-01-20T03:06:23;6.20;;;3.40;;
5549;SDS011;2798;42.716;23.256;2023-01-20T03:08:49;4.30;;;3.03;;
5549;SDS011;2798;42.716;23.256;2023-01-20T03:11:16;4.40;;;3.10;;
5549;SDS011;2798;42.716;23.256;2023-01-20T03:13:47;5.30;;;3.20;;
5549;SDS011;2798;42.716;23.256;2023-01-20T03:16:18;3.80;;;2.70;;
5549;SDS011;2798;42.716;23.256;2023-01-20T03:18:44;5.43;;;2.90;;
5549;SDS011;2798;42.716;23.256;2023-01-20T03:21:09;5.97;;;3.33;;
5549;SDS011;2798;42.716;23.256;2023-01-20T03:23:36;4.23;;;2.97;;
5549;SDS011;2798;42.716;23.256;2023-01-20T03:26:04;3.90;;;2.53;;
5549;SDS011;2798;42.716;23.256;2023-01-20T03:28:30;4.10;;;2.87;;
5549;SDS011;2798;42.716;23.256;2023-01-20T03:30:56;5.10;;;2.80;;
5549;SDS011;2798;42.716;23.256;2023-01-20T03:33:22;3.87;;;2.90;;
5549;SDS011;2798;42.716;23.256;2023-01-20T03:35:47;5.60;;;3.20;;
5549;SDS011;2798;42.716;23.256;2023-01-20T03:38:13;3.90;;;2.93;;
5549;SDS011;2798;42.716;23.256;2023-01-20T03:40:52;3.33;;;2.73;;
5549;SDS011;2798;42.716;23.256;2023-01-20T03:43:26;4.20;;;2.97;;
5549;SDS011;2798;42.716;23.256;2023-01-20T03:45:54;4.30;;;3.00;;
5549;SDS011;2798;42.716;23.256;2023-01-20T03:51:55;6.10;;;3.33;;
5549;SDS011;2798;42.716;23.256;2023-01-20T03:53:52;4.63;;;3.00;;
5549;SDS011;2798;42.716;23.256;2023-01-20T03:56:21;4.10;;;3.00;;
5549;SDS011;2798;42.716;23.256;2023-01-20T03:58:49;4.40;;;3.20;;
5549;SDS011;2798;42.716;23.256;2023-01-20T04:01:16;4.43;;;3.17;;
5549;SDS011;2798;42.716;23.256;2023-01-20T04:03:43;5.70;;;3.30;;
5549;SDS011;2798;42.716;23.256;2023-01-20T04:06:10;5.00;;;3.07;;
5549;SDS011;2798;42.716;23.256;2023-01-20T04:08:38;6.30;;;3.03;;
5549;SDS011;2798;42.716;23.256;2023-01-20T04:11:04;6.40;;;3.60;;
5549;SDS011;2798;42.716;23.256;2023-01-20T04:13:30;5.73;;;3.37;;
5549;SDS011;2798;42.716;23.256;2023-01-20T04:15:55;9.80;;;4.00;;
5549;SDS011;2798;42.716;23.256;2023-01-20T04:18:22;4.43;;;3.23;;
5549;SDS011;2798;42.716;23.256;2023-01-20T04:20:58;4.50;;;3.17;;
5549;SDS011;2798;42.716;23.256;2023-01-20T04:25:50;6.13;;;3.40;;
5549;SDS011;2798;42.716;23.256;2023-01-20T04:28:15;4.70;;;3.13;;
5549;SDS011;2798;42.716;23.256;2023-01-20T04:30:40;3.53;;;2.57;;
5549;SDS011;2798;42.716;23.256;2023-01-20T04:33:06;5.80;;;3.20;;
5549;SDS011;2798;42.716;23.256;2023-01-20T04:35:31;3.97;;;3.10;;
5549;SDS011;2798;42.716;23.256;2023-01-20T04:37:56;5.60;;;3.70;;
5549;SDS011;2798;42.716;23.256;2023-01-20T04:40:22;5.33;;;3.40;;
5549;SDS011;2798;42.716;23.256;2023-01-20T04:42:47;8.13;;;4.00;;
5549;SDS011;2798;42.716;23.256;2023-01-20T04:45:15;4.10;;;2.90;;
5549;SDS011;2798;42.716;23.256;2023-01-20T04:47:41;6.83;;;4.07;;
5549;SDS011;2798;42.716;23.256;2023-01-20T04:50:07;4.83;;;3.20;;
5549;SDS011;2798;42.716;23.256;2023-01-20T04:52:32;5.70;;;3.63;;
5549;SDS011;2798;42.716;23.256;2023-01-20T04:54:57;15.30;;;5.60;;
5549;SDS011;2798;42.716;23.256;2023-01-20T04:57:23;6.63;;;3.93;;
5549;SDS011;2798;42.716;23.256;2023-01-20T04:59:48;4.80;;;3.53;;
5549;SDS011;2798;42.716;23.256;2023-01-20T05:02:14;4.03;;;3.00;;
5549;SDS011;2798;42.716;23.256;2023-01-20T05:04:39;5.27;;;3.33;;
5549;SDS011;2798;42.716;23.256;2023-01-20T05:07:04;4.07;;;3.30;;
5549;SDS011;2798;42.716;23.256;2023-01-20T05:09:30;3.97;;;2.97;;
5549;SDS011;2798;42.716;23.256;2023-01-20T05:11:55;6.10;;;4.00;;
5549;SDS011;2798;42.716;23.256;2023-01-20T05:14:20;5.40;;;3.27;;
5549;SDS011;2798;42.716;23.256;2023-01-20T05:16:45;5.67;;;3.83;;
5549;SDS011;2798;42.716;23.256;2023-01-20T05:19:11;6.67;;;4.20;;
5549;SDS011;2798;42.716;23.256;2023-01-20T05:21:36;4.93;;;3.93;;
5549;SDS011;2798;42.716;23.256;2023-01-20T05:24:01;8.30;;;3.80;;
5549;SDS011;2798;42.716;23.256;2023-01-20T05:26:27;5.27;;;3.63;;
5549;SDS011;2798;42.716;23.256;2023-01-20T05:28:52;8.00;;;5.00;;
5549;SDS011;2798;42.716;23.256;2023-01-20T05:31:18;7.50;;;4.10;;
5549;SDS011;2798;42.716;23.256;2023-01-20T05:33:43;7.50;;;4.57;;
5549;SDS011;2798;42.716;23.256;2023-01-20T05:36:09;7.13;;;3.93;;
5549;SDS011;2798;42.716;23.256;2023-01-20T05:38:35;10.77;;;5.93;;
5549;SDS011;2798;42.716;23.256;2023-01-20T05:41:00;7.23;;;4.27;;
5549;SDS011;2798;42.716;23.256;2023-01-20T05:43:26;7.23;;;4.40;;
5549;SDS011;2798;42.716;23.256;2023-01-20T05:45:51;6.57;;;4.17;;
5549;SDS011;2798;42.716;23.256;2023-01-20T05:48:16;7.53;;;4.60;;
5549;SDS011;2798;42.716;23.256;2023-01-20T05:50:42;9.07;;;4.93;;
5549;SDS011;2798;42.716;23.256;2023-01-20T05:53:07;6.43;;;4.27;;
5549;SDS011;2798;42.716;23.256;2023-01-20T05:55:32;8.07;;;4.67;;
5549;SDS011;2798;42.716;23.256;2023-01-20T05:57:59;9.37;;;4.70;;
5549;SDS011;2798;42.716;23.256;2023-01-20T06:00:25;7.23;;;4.33;;
5549;SDS011;2798;42.716;23.256;2023-01-20T06:02:50;8.10;;;4.83;;
5549;SDS011;2798;42.716;23.256;2023-01-20T06:05:15;11.53;;;5.43;;
5549;SDS011;2798;42.716;23.256;2023-01-20T06:07:40;9.10;;;4.93;;
5549;SDS011;2798;42.716;23.256;2023-01-20T06:10:06;9.00;;;5.00;;
5549;SDS011;2798;42.716;23.256;2023-01-20T06:12:32;6.00;;;4.10;;
5549;SDS011;2798;42.716;23.256;2023-01-20T06:14:57;7.37;;;5.10;;
5549;SDS011;2798;42.716;23.256;2023-01-20T06:17:23;9.00;;;5.13;;
5549;SDS011;2798;42.716;23.256;2023-01-20T06:19:48;7.67;;;4.50;;
5549;SDS011;2798;42.716;23.256;2023-01-20T06:22:13;7.43;;;4.63;;
5549;SDS011;2798;42.716;23.256;2023-01-20T06:24:39;14.10;;;6.07;;
5549;SDS011;2798;42.716;23.256;2023-01-20T06:27:04;10.70;;;5.80;;
5549;SDS011;2798;42.716;23.256;2023-01-20T06:29:30;9.63;;;5.63;;
5549;SDS011;2798;42.716;23.256;2023-01-20T06:31:55;8.57;;;6.00;;
5549;SDS011;2798;42.716;23.256;2023-01-20T06:34:20;10.83;;;5.40;;
5549;SDS011;2798;42.716;23.256;2023-01-20T06:36:46;10.30;;;6.20;;
5549;SDS011;2798;42.716;23.256;2023-01-20T06:39:11;9.30;;;5.67;;
5549;SDS011;2798;42.716;23.256;2023-01-20T06:41:36;9.50;;;5.83;;
5549;SDS011;2798;42.716;23.256;2023-01-20T06:44:01;14.20;;;6.87;;
5549;SDS011;2798;42.716;23.256;2023-01-20T06:46:26;8.63;;;5.90;;
5549;SDS011;2798;42.716;23.256;2023-01-20T06:48:52;7.47;;;5.57;;
5549;SDS011;2798;42.716;23.256;2023-01-20T06:51:24;9.27;;;5.23;;
5549;SDS011;2798;42.716;23.256;2023-01-20T06:53:49;11.83;;;5.70;;
5549;SDS011;2798;42.716;23.256;2023-01-20T06:56:14;8.03;;;5.93;;
5549;SDS011;2798;42.716;23.256;2023-01-20T06:58:40;13.80;;;6.73;;
5549;SDS011;2798;42.716;23.256;2023-01-20T07:01:09;10.17;;;6.40;;
5549;SDS011;2798;42.716;23.256;2023-01-20T07:03:35;12.17;;;7.60;;
5549;SDS011;2798;42.716;23.256;2023-01-20T07:06:01;10.87;;;7.00;;
5549;SDS011;2798;42.716;23.256;2023-01-20T07:08:27;10.37;;;6.27;;
5549;SDS011;2798;42.716;23.256;2023-01-20T07:10:53;9.47;;;6.83;;
5549;SDS011;2798;42.716;23.256;2023-01-20T07:13:18;11.47;;;7.03;;
5549;SDS011;2798;42.716;23.256;2023-01-20T07:15:43;10.43;;;7.00;;
5549;SDS011;2798;42.716;23.256;2023-01-20T07:18:09;11.40;;;6.77;;
5549;SDS011;2798;42.716;23.256;2023-01-20T07:20:34;11.27;;;6.77;;
5549;SDS011;2798;42.716;23.256;2023-01-20T07:22:59;12.20;;;6.73;;
5549;SDS011;2798;42.716;23.256;2023-01-20T07:25:25;13.40;;;7.00;;
5549;SDS011;2798;42.716;23.256;2023-01-20T07:27:50;11.37;;;7.73;;
5549;SDS011;2798;42.716;23.256;2023-01-20T07:30:16;9.40;;;6.53;;
5549;SDS011;2798;42.716;23.256;2023-01-20T07:32:41;9.60;;;7.37;;
5549;SDS011;2798;42.716;23.256;2023-01-20T07:35:06;12.03;;;7.37;;
5549;SDS011;2798;42.716;23.256;2023-01-20T07:37:32;8.77;;;6.53;;
5549;SDS011;2798;42.716;23.256;2023-01-20T07:39:57;10.77;;;7.40;;
5549;SDS011;2798;42.716;23.256;2023-01-20T07:42:22;9.60;;;6.63;;
5549;SDS011;2798;42.716;23.256;2023-01-20T07:44:47;9.93;;;6.77;;
5549;SDS011;2798;42.716;23.256;2023-01-20T07:47:13;10.40;;;7.57;;
5549;SDS011;2798;42.716;23.256;2023-01-20T07:49:38;12.10;;;7.70;;
5549;SDS011;2798;42.716;23.256;2023-01-20T07:52:03;10.43;;;7.37;;
5549;SDS011;2798;42.716;23.256;2023-01-20T07:54:28;12.43;;;7.53;;
5549;SDS011;2798;42.716;23.256;2023-01-20T07:56:54;9.37;;;6.87;;
5549;SDS011;2798;42.716;23.256;2023-01-20T07:59:19;9.63;;;6.77;;
5549;SDS011;2798;42.716;23.256;2023-01-20T08:01:44;8.57;;;6.10;;
5549;SDS011;2798;42.716;23.256;2023-01-20T08:04:09;7.67;;;5.60;;
5549;SDS011;2798;42.716;23.256;2023-01-20T08:06:37;11.27;;;7.00;;
5549;SDS011;2798;42.716;23.256;2023-01-20T08:09:02;11.13;;;6.60;;
5549;SDS011;2798;42.716;23.256;2023-01-20T08:11:27;10.73;;;6.80;;
5549;SDS011;2798;42.716;23.256;2023-01-20T08:13:53;8.90;;;6.47;;
5549;SDS011;2798;42.716;23.256;2023-01-20T08:16:18;6.63;;;5.00;;
5549;SDS011;2798;42.716;23.256;2023-01-20T08:18:43;11.00;;;7.17;;
5549;SDS011;2798;42.716;23.256;2023-01-20T08:21:16;9.67;;;6.20;;
5549;SDS011;2798;42.716;23.256;2023-01-20T08:23:42;9.13;;;6.57;;
5549;SDS011;2798;42.716;23.256;2023-01-20T08:26:07;11.83;;;7.00;;
5549;SDS011;2798;42.716;23.256;2023-01-20T08:28:33;12.30;;;6.53;;
5549;SDS011;2798;42.716;23.256;2023-01-20T08:31:03;10.40;;;5.93;;
5549;SDS011;2798;42.716;23.256;2023-01-20T08:33:28;10.07;;;6.20;;
5549;SDS011;2798;42.716;23.256;2023-01-20T08:35:53;11.90;;;5.90;;
5549;SDS011;2798;42.716;23.256;2023-01-20T08:38:20;8.20;;;5.30;;
5549;SDS011;2798;42.716;23.256;2023-01-20T08:40:46;10.37;;;6.57;;
5549;SDS011;2798;42.716;23.256;2023-01-20T08:43:11;11.07;;;5.60;;
5549;SDS011;2798;42.716;23.256;2023-01-20T08:45:39;7.93;;;5.57;;
5549;SDS011;2798;42.716;23.256;2023-01-20T08:48:07;8.73;;;5.13;;
5549;SDS011;2798;42.716;23.256;2023-01-20T08:50:32;8.93;;;5.40;;
5549;SDS011;2798;42.716;23.256;2023-01-20T08:52:58;8.33;;;5.53;;
5549;SDS011;2798;42.716;23.256;2023-01-20T08:55:23;8.03;;;5.90;;
5549;SDS011;2798;42.716;23.256;2023-01-20T08:57:48;8.23;;;5.00;;
5549;SDS011;2798;42.716;23.256;2023-01-20T09:00:14;8.37;;;5.40;;
5549;SDS011;2798;42.716;23.256;2023-01-20T09:02:39;7.67;;;5.43;;
5549;SDS011;2798;42.716;23.256;2023-01-20T09:05:05;13.03;;;6.80;;
5549;SDS011;2798;42.716;23.256;2023-01-20T09:07:30;7.40;;;5.30;;
5549;SDS011;2798;42.716;23.256;2023-01-20T09:09:56;5.93;;;4.53;;
5549;SDS011;2798;42.716;23.256;2023-01-20T09:12:21;7.00;;;4.37;;
5549;SDS011;2798;42.716;23.256;2023-01-20T09:14:46;9.20;;;5.27;;
5549;SDS011;2798;42.716;23.256;2023-01-20T09:17:11;9.13;;;5.00;;
5549;SDS011;2798;42.716;23.256;2023-01-20T09:19:38;7.50;;;5.70;;
5549;SDS011;2798;42.716;23.256;2023-01-20T09:22:03;7.60;;;5.47;;
5549;SDS011;2798;42.716;23.256;2023-01-20T09:24:29;8.60;;;5.83;;
5549;SDS011;2798;42.716;23.256;2023-01-20T09:26:54;7.57;;;5.03;;
5549;SDS011;2798;42.716;23.256;2023-01-20T09:29:20;9.07;;;5.53;;
5549;SDS011;2798;42.716;23.256;2023-01-20T09:31:50;9.93;;;5.60;;
5549;SDS011;2798;42.716;23.256;2023-01-20T09:34:17;11.97;;;6.63;;
5549;SDS011;2798;42.716;23.256;2023-01-20T09:36:55;9.93;;;6.30;;
5549;SDS011;2798;42.716;23.256;2023-01-20T09:39:20;8.30;;;5.73;;
5549;SDS011;2798;42.716;23.256;2023-01-20T09:42:24;9.30;;;5.47;;
5549;SDS011;2798;42.716;23.256;2023-01-20T09:47:48;10.80;;;6.07;;
5549;SDS011;2798;42.716;23.256;2023-01-20T09:55:50;12.07;;;6.03;;
5549;SDS011;2798;42.716;23.256;2023-01-20T09:58:19;12.50;;;5.93;;
5549;SDS011;2798;42.716;23.256;2023-01-20T10:06:01;10.10;;;5.73;;
5549;SDS011;2798;42.716;23.256;2023-01-20T10:08:31;8.83;;;5.27;;
5549;SDS011;2798;42.716;23.256;2023-01-20T10:11:08;11.60;;;5.57;;
5549;SDS011;2798;42.716;23.256;2023-01-20T10:13:36;11.80;;;5.87;;
5549;SDS011;2798;42.716;23.256;2023-01-20T10:16:05;8.23;;;5.30;;
5549;SDS011;2798;42.716;23.256;2023-01-20T10:18:54;8.53;;;5.23;;
5549;SDS011;2798;42.716;23.256;2023-01-20T10:21:24;10.50;;;5.43;;
5549;SDS011;2798;42.716;23.256;2023-01-20T10:23:54;6.90;;;4.87;;
5549;SDS011;2798;42.716;23.256;2023-01-20T10:28:56;8.33;;;6.00;;
5549;SDS011;2798;42.716;23.256;2023-01-20T10:31:24;9.37;;;4.30;;
5549;SDS011;2798;42.716;23.256;2023-01-20T10:33:51;4.63;;;3.87;;
5549;SDS011;2798;42.716;23.256;2023-01-20T10:36:23;7.50;;;4.93;;
5549;SDS011;2798;42.716;23.256;2023-01-20T10:38:51;12.07;;;5.30;;
5549;SDS011;2798;42.716;23.256;2023-01-20T10:41:27;8.23;;;4.67;;
5549;SDS011;2798;42.716;23.256;2023-01-20T10:43:56;6.10;;;4.13;;
5549;SDS011;2798;42.716;23.256;2023-01-20T10:59:10;6.03;;;3.90;;
5549;SDS011;2798;42.716;23.256;2023-01-20T11:01:36;5.37;;;3.97;;
5549;SDS011;2798;42.716;23.256;2023-01-20T11:04:02;5.40;;;3.80;;
5549;SDS011;2798;42.716;23.256;2023-01-20T11:06:27;5.10;;;3.70;;
5549;SDS011;2798;42.716;23.256;2023-01-20T11:08:53;5.47;;;3.53;;
5549;SDS011;2798;42.716;23.256;2023-01-20T11:11:19;6.00;;;3.63;;
5549;SDS011;2798;42.716;23.256;2023-01-20T11:13:45;4.40;;;3.33;;
5549;SDS011;2798;42.716;23.256;2023-01-20T11:16:21;4.00;;;3.37;;
5549;SDS011;2798;42.716;23.256;2023-01-20T11:19:01;4.67;;;3.47;;
5549;SDS011;2798;42.716;23.256;2023-01-20T11:21:28;6.53;;;4.10;;
5549;SDS011;2798;42.716;23.256;2023-01-20T11:23:54;6.67;;;4.10;;
5549;SDS011;2798;42.716;23.256;2023-01-20T11:26:24;5.60;;;3.90;;
5549;SDS011;2798;42.716;23.256;2023-01-20T11:28:55;5.03;;;3.63;;
5549;SDS011;2798;42.716;23.256;2023-01-20T11:31:32;5.80;;;3.90;;
5549;SDS011;2798;42.716;23.256;2023-01-20T11:33:59;5.87;;;3.70;;
5549;SDS011;2798;42.716;23.256;2023-01-20T11:36:25;6.53;;;3.93;;
5549;SDS011;2798;42.716;23.256;2023-01-20T11:38:51;5.40;;;3.30;;
5549;SDS011;2798;42.716;23.256;2023-01-20T11:41:18;3.10;;;2.50;;
5549;SDS011;2798;42.716;23.256;2023-01-20T11:43:45;4.27;;;3.00;;
5549;SDS011;2798;42.716;23.256;2023-01-20T11:48:40;5.10;;;3.50;;
5549;SDS011;2798;42.716;23.256;2023-01-20T11:51:13;5.00;;;3.40;;
5549;SDS011;2798;42.716;23.256;2023-01-20T11:53:42;5.20;;;2.57;;
5549;SDS011;2798;42.716;23.256;2023-01-20T11:58:48;3.20;;;2.40;;
5549;SDS011;2798;42.716;23.256;2023-01-20T12:01:20;4.00;;;3.00;;
5549;SDS011;2798;42.716;23.256;2023-01-20T12:04:09;5.33;;;3.17;;
5549;SDS011;2798;42.716;23.256;2023-01-20T12:06:48;6.70;;;3.30;;
5549;SDS011;2798;42.716;23.256;2023-01-20T12:09:16;4.93;;;2.80;;
5549;SDS011;2798;42.716;23.256;2023-01-20T12:11:52;5.27;;;3.20;;
5549;SDS011;2798;42.716;23.256;2023-01-20T12:19:41;7.10;;;2.90;;
5549;SDS011;2798;42.716;23.256;2023-01-20T12:22:12;4.20;;;3.03;;
5549;SDS011;2798;42.716;23.256;2023-01-20T12:27:33;3.53;;;2.43;;
5549;SDS011;2798;42.716;23.256;2023-01-20T12:30:04;4.13;;;2.50;;
5549;SDS011;2798;42.716;23.256;2023-01-20T12:32:32;5.00;;;2.90;;
5549;SDS011;2798;42.716;23.256;2023-01-20T12:34:57;5.57;;;2.67;;
5549;SDS011;2798;42.716;23.256;2023-01-20T12:40:15;4.33;;;2.50;;
5549;SDS011;2798;42.716;23.256;2023-01-20T12:58:19;5.60;;;3.53;;
5549;SDS011;2798;42.716;23.256;2023-01-20T13:03:24;5.23;;;3.20;;
5549;SDS011;2798;42.716;23.256;2023-01-20T13:05:58;5.43;;;3.27;;
5549;SDS011;2798;42.716;23.256;2023-01-20T13:08:37;6.47;;;3.80;;
5549;SDS011;2798;42.716;23.256;2023-01-20T13:11:18;5.33;;;3.27;;
5549;SDS011;2798;42.716;23.256;2023-01-20T13:16:16;7.37;;;3.87;;
5549;SDS011;2798;42.716;23.256;2023-01-20T13:18:51;10.60;;;4.47;;
5549;SDS011;2798;42.716;23.256;2023-01-20T13:21:20;7.43;;;3.83;;
5549;SDS011;2798;42.716;23.256;2023-01-20T13:23:46;8.33;;;4.10;;
5549;SDS011;2798;42.716;23.256;2023-01-20T13:26:12;6.90;;;3.70;;
5549;SDS011;2798;42.716;23.256;2023-01-20T13:28:37;7.30;;;3.80;;
5549;SDS011;2798;42.716;23.256;2023-01-20T13:31:30;5.67;;;3.50;;
5549;SDS011;2798;42.716;23.256;2023-01-20T13:34:26;11.30;;;4.60;;
5549;SDS011;2798;42.716;23.256;2023-01-20T13:36:41;10.53;;;4.20;;
5549;SDS011;2798;42.716;23.256;2023-01-20T13:39:40;5.77;;;3.30;;
5549;SDS011;2798;42.716;23.256;2023-01-20T13:50:20;6.93;;;3.73;;
5549;SDS011;2798;42.716;23.256;2023-01-20T13:57:59;7.17;;;3.70;;
5549;SDS011;2798;42.716;23.256;2023-01-20T14:00:24;5.50;;;2.83;;
5549;SDS011;2798;42.716;23.256;2023-01-20T14:02:49;6.73;;;3.20;;
5549;SDS011;2798;42.716;23.256;2023-01-20T14:05:18;5.80;;;3.40;;
5549;SDS011;2798;42.716;23.256;2023-01-20T14:07:44;5.67;;;3.33;;
5549;SDS011;2798;42.716;23.256;2023-01-20T14:10:09;5.70;;;3.50;;
5549;SDS011;2798;42.716;23.256;2023-01-20T14:12:39;5.90;;;3.40;;
5549;SDS011;2798;42.716;23.256;2023-01-20T14:15:04;5.87;;;3.70;;
5549;SDS011;2798;42.716;23.256;2023-01-20T14:17:29;5.10;;;3.10;;
5549;SDS011;2798;42.716;23.256;2023-01-20T14:19:55;6.00;;;3.37;;
5549;SDS011;2798;42.716;23.256;2023-01-20T14:22:24;6.00;;;3.47;;
5549;SDS011;2798;42.716;23.256;2023-01-20T14:24:51;7.03;;;3.23;;
5549;SDS011;2798;42.716;23.256;2023-01-20T14:29:46;6.80;;;3.53;;
5549;SDS011;2798;42.716;23.256;2023-01-20T14:34:43;6.30;;;3.47;;
5549;SDS011;2798;42.716;23.256;2023-01-20T14:37:42;6.90;;;3.40;;
5549;SDS011;2798;42.716;23.256;2023-01-20T14:40:22;6.47;;;3.63;;
5549;SDS011;2798;42.716;23.256;2023-01-20T14:43:20;7.33;;;3.50;;
5549;SDS011;2798;42.716;23.256;2023-01-20T14:45:40;6.10;;;3.30;;
5549;SDS011;2798;42.716;23.256;2023-01-20T14:48:06;9.23;;;3.77;;
5549;SDS011;2798;42.716;23.256;2023-01-20T14:50:31;5.00;;;3.10;;
5549;SDS011;2798;42.716;23.256;2023-01-20T14:52:57;5.50;;;3.53;;
5549;SDS011;2798;42.716;23.256;2023-01-20T14:55:32;6.00;;;3.50;;
5549;SDS011;2798;42.716;23.256;2023-01-20T14:57:59;5.40;;;2.90;;
5549;SDS011;2798;42.716;23.256;2023-01-20T15:00:28;5.70;;;3.40;;
5549;SDS011;2798;42.716;23.256;2023-01-20T15:03:03;9.20;;;4.10;;
5549;SDS011;2798;42.716;23.256;2023-01-20T15:05:30;7.13;;;3.50;;
5549;SDS011;2798;42.716;23.256;2023-01-20T15:10:30;4.53;;;3.20;;
5549;SDS011;2798;42.716;23.256;2023-01-20T15:12:56;7.63;;;3.87;;
5549;SDS011;2798;42.716;23.256;2023-01-20T15:20:53;8.20;;;3.93;;
5549;SDS011;2798;42.716;23.256;2023-01-20T15:23:34;9.33;;;4.00;;
5549;SDS011;2798;42.716;23.256;2023-01-20T15:26:09;10.53;;;4.40;;
5549;SDS011;2798;42.716;23.256;2023-01-20T15:28:41;5.63;;;3.13;;
5549;SDS011;2798;42.716;23.256;2023-01-20T15:31:07;5.20;;;3.37;;
5549;SDS011;2798;42.716;23.256;2023-01-20T15:33:36;4.97;;;3.10;;
5549;SDS011;2798;42.716;23.256;2023-01-20T15:36:01;7.90;;;3.70;;
5549;SDS011;2798;42.716;23.256;2023-01-20T15:38:38;5.70;;;3.37;;
5549;SDS011;2798;42.716;23.256;2023-01-20T15:41:03;8.20;;;3.90;;
5549;SDS011;2798;42.716;23.256;2023-01-20T15:43:28;14.23;;;4.83;;
5549;SDS011;2798;42.716;23.256;2023-01-20T15:45:53;12.83;;;4.80;;
5549;SDS011;2798;42.716;23.256;2023-01-20T15:48:20;14.67;;;5.40;;
5549;SDS011;2798;42.716;23.256;2023-01-20T15:50:45;13.90;;;5.00;;
5549;SDS011;2798;42.716;23.256;2023-01-20T15:53:11;12.50;;;4.87;;
5549;SDS011;2798;42.716;23.256;2023-01-20T15:55:38;16.40;;;5.20;;
5549;SDS011;2798;42.716;23.256;2023-01-20T15:58:13;13.60;;;4.80;;
5549;SDS011;2798;42.716;23.256;2023-01-20T16:00:43;15.43;;;5.33;;
5549;SDS011;2798;42.716;23.256;2023-01-20T16:03:08;14.47;;;5.30;;
5549;SDS011;2798;42.716;23.256;2023-01-20T16:05:35;13.07;;;4.37;;
5549;SDS011;2798;42.716;23.256;2023-01-20T16:08:00;8.33;;;3.97;;
5549;SDS011;2798;42.716;23.256;2023-01-20T16:10:25;10.80;;;5.00;;
5549;SDS011;2798;42.716;23.256;2023-01-20T16:12:51;9.30;;;4.73;;
5549;SDS011;2798;42.716;23.256;2023-01-20T16:15:16;8.70;;;4.30;;
5549;SDS011;2798;42.716;23.256;2023-01-20T16:17:41;6.53;;;4.03;;
5549;SDS011;2798;42.716;23.256;2023-01-20T16:20:25;4.60;;;3.60;;
5549;SDS011;2798;42.716;23.256;2023-01-20T16:22:50;7.20;;;3.87;;
5549;SDS011;2798;42.716;23.256;2023-01-20T16:25:16;9.63;;;4.60;;
5549;SDS011;2798;42.716;23.256;2023-01-20T16:27:41;5.40;;;4.03;;
5549;SDS011;2798;42.716;23.256;2023-01-20T16:30:09;5.57;;;3.73;;
5549;SDS011;2798;42.716;23.256;2023-01-20T16:32:36;5.67;;;3.83;;
5549;SDS011;2798;42.716;23.256;2023-01-20T16:35:02;7.53;;;4.30;;
5549;SDS011;2798;42.716;23.256;2023-01-20T16:37:27;10.40;;;4.20;;
5549;SDS011;2798;42.716;23.256;2023-01-20T16:39:52;5.67;;;3.73;;
5549;SDS011;2798;42.716;23.256;2023-01-20T16:42:18;6.47;;;3.43;;
5549;SDS011;2798;42.716;23.256;2023-01-20T16:44:43;5.23;;;3.90;;
5549;SDS011;2798;42.716;23.256;2023-01-20T16:47:08;5.13;;;3.60;;
5549;SDS011;2798;42.716;23.256;2023-01-20T16:49:33;7.60;;;4.27;;
5549;SDS011;2798;42.716;23.256;2023-01-20T16:51:59;10.80;;;4.67;;
5549;SDS011;2798;42.716;23.256;2023-01-20T16:54:24;5.80;;;4.00;;
5549;SDS011;2798;42.716;23.256;2023-01-20T16:56:49;8.20;;;4.57;;
5549;SDS011;2798;42.716;23.256;2023-01-20T16:59:14;7.47;;;4.30;;